createdAt,value
2019-05-29T00:00:08.324Z,100384.36
2019-05-29T00:02:36.786Z,100377.34
2019-05-29T00:05:07.984Z,100392.38
2019-05-29T00:07:36.836Z,100395.41
2019-05-29T00:10:08.821Z,100387.06
2019-05-29T00:12:37.663Z,100394.16
2019-05-29T00:15:06.330Z,100400.92
2019-05-29T00:17:34.708Z,100405.71
2019-05-29T00:20:03.190Z,100409.03
2019-05-29T00:22:33.095Z,100415.92
2019-05-29T00:25:03.025Z,100414.36
2019-05-29T00:27:31.482Z,100415.47
2019-05-29T00:29:59.898Z,100418.94
2019-05-29T00:32:28.286Z,100416.52
2019-05-29T00:34:56.729Z,100421.50
2019-05-29T00:37:25.110Z,100419.20
2019-05-29T00:39:53.517Z,100420.24
2019-05-29T00:42:21.912Z,100422.65
2019-05-29T00:44:50.399Z,100432.95
2019-05-29T00:47:18.787Z,100430.69
2019-05-29T00:49:47.558Z,100432.05
2019-05-29T00:52:16.602Z,100431.14
2019-05-29T00:54:45.233Z,100438.16
2019-05-29T00:57:15.379Z,100439.95
2019-05-29T00:59:43.723Z,100450.93
2019-05-29T01:02:13.843Z,100447.88
2019-05-29T01:04:42.253Z,100453.52
2019-05-29T01:07:12.206Z,100452.05
2019-05-29T01:09:42.464Z,100459.14
2019-05-29T01:12:10.881Z,100461.34
2019-05-29T01:14:49.725Z,100453.64
2019-05-29T01:17:12.193Z,100460.22
2019-05-29T01:19:40.930Z,100465.34
2019-05-29T01:22:09.325Z,100451.88
2019-05-29T01:24:37.743Z,100475.06
2019-05-29T01:27:06.176Z,100472.66
2019-05-29T01:29:34.580Z,100478.72
2019-05-29T01:32:03.099Z,100481.84
2019-05-29T01:34:31.680Z,100476.41
2019-05-29T01:37:01.608Z,100481.97
2019-05-29T01:39:30.009Z,100484.69
2019-05-29T01:41:58.564Z,100482.58
2019-05-29T01:44:27.803Z,100487.69
2019-05-29T01:46:56.457Z,100484.25
2019-05-29T01:49:24.877Z,100494.41
2019-05-29T01:51:53.368Z,100492.32
2019-05-29T01:54:21.782Z,100492.00
2019-05-29T01:56:50.194Z,100492.83
2019-05-29T01:59:19.690Z,100499.63
2019-05-29T02:01:48.095Z,100498.91
2019-05-29T02:04:17.732Z,100502.57
2019-05-29T02:06:46.674Z,100510.91
2019-05-29T02:09:15.910Z,100509.77
2019-05-29T02:11:44.382Z,100514.78
2019-05-29T02:14:12.764Z,100520.61
2019-05-29T02:16:42.704Z,100524.06
2019-05-29T02:19:11.107Z,100526.66
2019-05-29T02:21:39.517Z,100527.91
2019-05-29T02:24:08.169Z,100527.18
2019-05-29T02:26:36.587Z,100528.63
2019-05-29T02:29:04.993Z,100530.50
2019-05-29T02:31:33.405Z,100531.78
2019-05-29T02:34:01.795Z,100535.31
2019-05-29T02:36:30.253Z,100544.95
2019-05-29T02:38:58.806Z,100544.95
2019-05-29T02:41:28.483Z,100535.44
2019-05-29T02:43:57.579Z,100542.23
2019-05-29T02:46:28.088Z,100543.80
2019-05-29T02:48:56.471Z,100545.37
2019-05-29T02:51:26.507Z,100523.77
2019-05-29T02:53:55.175Z,100551.23
2019-05-29T02:56:24.905Z,100554.67
2019-05-29T02:58:53.567Z,100558.75
2019-05-29T03:01:24.035Z,100567.32
2019-05-29T03:03:52.776Z,100571.41
2019-05-29T03:06:22.301Z,100564.30
2019-05-29T03:08:51.870Z,100567.02
2019-05-29T03:11:20.262Z,100566.92
2019-05-29T03:13:48.753Z,100566.08
2019-05-29T03:16:17.139Z,100576.23
2019-05-29T03:18:45.545Z,100575.08
2019-05-29T03:21:13.933Z,100574.45
2019-05-29T03:23:42.355Z,100585.83
2019-05-29T03:26:12.263Z,100578.52
2019-05-29T03:28:42.217Z,100584.16
2019-05-29T03:31:10.627Z,100588.55
2019-05-29T03:33:47.876Z,100587.52
2019-05-29T03:36:10.671Z,100596.49
2019-05-29T03:38:40.730Z,100595.34
2019-05-29T03:41:09.206Z,100599.42
2019-05-29T03:43:38.729Z,100607.06
2019-05-29T03:46:26.458Z,100610.94
2019-05-29T03:48:38.932Z,100609.37
2019-05-29T03:51:07.368Z,100615.31
2019-05-29T03:53:38.441Z,100621.09
2019-05-29T03:56:07.208Z,100618.37
2019-05-29T03:58:37.512Z,100618.03
2019-05-29T04:01:05.991Z,100627.47
2019-05-29T04:03:35.662Z,100627.47
2019-05-29T04:06:05.258Z,100636.23
2019-05-29T04:08:35.694Z,100642.91
2019-05-29T04:11:04.853Z,100644.91
2019-05-29T04:13:34.087Z,100643.14
2019-05-29T04:16:03.958Z,100649.19
2019-05-29T04:18:35.929Z,100656.63
2019-05-29T04:21:05.149Z,100656.41
2019-05-29T04:23:38.375Z,100663.00
2019-05-29T04:26:08.627Z,100661.13
2019-05-29T04:28:38.889Z,100664.67
2019-05-29T04:31:07.156Z,100670.95
2019-05-29T04:33:38.909Z,100676.80
2019-05-29T04:36:07.741Z,100684.23
2019-05-29T04:38:37.822Z,100682.36
2019-05-29T04:41:06.265Z,100682.45
2019-05-29T04:43:35.431Z,100694.07
2019-05-29T04:46:04.894Z,100693.31
2019-05-29T04:48:36.139Z,100699.19
2019-05-29T04:51:05.085Z,100707.44
2019-05-29T04:53:34.201Z,100710.47
2019-05-29T04:56:04.410Z,100711.41
2019-05-29T04:58:34.856Z,100705.45
2019-05-29T05:01:05.960Z,100718.11
2019-05-29T05:03:35.200Z,100704.50
2019-05-29T05:06:04.634Z,100716.73
2019-05-29T05:08:33.350Z,100711.92
2019-05-29T05:11:02.430Z,100718.28
2019-05-29T05:13:31.488Z,100724.15
2019-05-29T05:16:02.198Z,100728.75
2019-05-29T05:18:31.670Z,100737.41
2019-05-29T05:21:00.303Z,100741.16
2019-05-29T05:23:29.960Z,100741.80
2019-05-29T05:25:58.469Z,100741.07
2019-05-29T05:28:26.972Z,100744.77
2019-05-29T05:30:55.458Z,100749.54
2019-05-29T05:33:23.892Z,100758.23
2019-05-29T05:35:53.828Z,100759.16
2019-05-29T05:38:22.487Z,100767.12
2019-05-29T05:40:51.078Z,100764.09
2019-05-29T05:43:24.059Z,100772.57
2019-05-29T05:45:49.676Z,100776.35
2019-05-29T05:48:18.317Z,100779.68
2019-05-29T05:50:46.717Z,100787.97
2019-05-29T05:53:15.133Z,100797.66
2019-05-29T05:55:43.554Z,100793.36
2019-05-29T05:58:13.228Z,100801.11
2019-05-29T06:00:43.117Z,100806.73
2019-05-29T06:03:11.545Z,100807.88
2019-05-29T06:05:40.281Z,100802.59
2019-05-29T06:08:09.122Z,100810.00
2019-05-29T06:10:38.179Z,100813.45
2019-05-29T06:13:06.908Z,100816.98
2019-05-29T06:15:36.416Z,100820.42
2019-05-29T06:18:19.891Z,100822.27
2019-05-29T06:20:35.065Z,100820.05
2019-05-29T06:23:04.591Z,100825.33
2019-05-29T06:25:33.865Z,100810.25
2019-05-29T06:28:06.261Z,100833.56
2019-05-29T06:30:36.550Z,100835.66
2019-05-29T06:33:04.781Z,100838.17
2019-05-29T06:35:35.868Z,100838.26
2019-05-29T06:38:04.832Z,100834.66
2019-05-29T06:40:42.180Z,100844.36
2019-05-29T06:43:22.643Z,100845.19
2019-05-29T06:45:51.177Z,100852.50
2019-05-29T06:48:42.984Z,100852.14
2019-05-29T06:50:58.292Z,100851.49
2019-05-29T06:53:26.806Z,100858.84
2019-05-29T06:55:56.847Z,100860.25
2019-05-29T06:58:25.597Z,100863.11
2019-05-29T07:00:54.013Z,100866.36
2019-05-29T07:03:22.435Z,100868.66
2019-05-29T07:05:53.083Z,100868.73
2019-05-29T07:08:37.496Z,100880.72
2019-05-29T07:10:53.639Z,100884.45
2019-05-29T07:13:23.618Z,100888.19
2019-05-29T07:15:52.027Z,100892.77
2019-05-29T07:18:20.525Z,100893.12
2019-05-29T07:20:48.943Z,100898.95
2019-05-29T07:23:17.348Z,100903.72
2019-05-29T07:25:46.131Z,100900.98
2019-05-29T07:28:15.830Z,100905.03
2019-05-29T07:30:57.276Z,100907.69
2019-05-29T07:33:14.640Z,100905.58
2019-05-29T07:35:43.609Z,100908.23
2019-05-29T07:38:12.219Z,100910.84
2019-05-29T07:40:42.661Z,100913.80
2019-05-29T07:43:12.428Z,100918.59
2019-05-29T07:45:42.125Z,100923.68
2019-05-29T07:48:10.890Z,100925.17
2019-05-29T07:50:40.101Z,100928.10
2019-05-29T07:53:08.545Z,100923.20
2019-05-29T07:55:38.316Z,100926.33
2019-05-29T07:58:08.517Z,100930.79
2019-05-29T08:00:59.884Z,100930.14
2019-05-29T08:03:07.271Z,100939.48
2019-05-29T08:05:35.671Z,100935.83
2019-05-29T08:08:04.839Z,100940.98
2019-05-29T08:10:33.237Z,100925.31
2019-05-29T08:13:01.642Z,100945.91
2019-05-29T08:15:30.060Z,100947.53
2019-05-29T08:17:58.536Z,100956.59
2019-05-29T08:20:27.002Z,100956.38
2019-05-29T08:22:56.786Z,100948.31
2019-05-29T08:25:25.480Z,100962.45
2019-05-29T08:27:53.957Z,100958.80
2019-05-29T08:30:22.523Z,100961.84
2019-05-29T08:32:51.337Z,100966.09
2019-05-29T08:35:23.484Z,100965.63
2019-05-29T08:37:54.076Z,100972.02
2019-05-29T08:40:22.658Z,100973.61
2019-05-29T08:42:51.497Z,100974.09
2019-05-29T08:45:20.293Z,100965.43
2019-05-29T08:47:49.747Z,100972.86
2019-05-29T08:50:20.858Z,100970.62
2019-05-29T08:52:50.109Z,100981.61
2019-05-29T08:55:20.468Z,100975.05
2019-05-29T08:57:48.854Z,100976.61
2019-05-29T09:00:19.631Z,100980.28
2019-05-29T09:02:49.182Z,100983.73
2019-05-29T09:05:18.029Z,100987.64
2019-05-29T09:07:47.948Z,100988.01
2019-05-29T09:10:18.331Z,100990.86
2019-05-29T09:13:06.350Z,100996.52
2019-05-29T09:15:34.919Z,101002.86
2019-05-29T09:18:03.654Z,101004.31
2019-05-29T09:23:02.200Z,101003.67
2019-05-29T09:25:30.806Z,101009.57
2019-05-29T09:27:59.300Z,101012.64
2019-05-29T09:30:27.778Z,101008.98
2019-05-29T09:32:56.230Z,101016.27
2019-05-29T09:35:25.071Z,101017.02
2019-05-29T09:37:53.530Z,101010.21
2019-05-29T09:40:23.098Z,101017.13
2019-05-29T09:42:51.598Z,101016.14
2019-05-29T09:45:21.549Z,101011.05
2019-05-29T09:47:51.552Z,101021.17
2019-05-29T09:50:22.735Z,101021.80
2019-05-29T09:52:50.312Z,101022.66
2019-05-29T09:55:19.049Z,101019.73
2019-05-29T09:57:47.519Z,101022.98
2019-05-29T10:00:17.951Z,101026.84
2019-05-29T10:02:46.378Z,101020.94
2019-05-29T10:05:14.920Z,101029.38
2019-05-29T10:07:43.339Z,101026.44
2019-05-29T10:10:13.176Z,101021.09
2019-05-29T10:12:41.649Z,101015.58
2019-05-29T10:15:12.284Z,101019.17
2019-05-29T10:17:42.177Z,101024.80
2019-05-29T10:20:13.366Z,101026.21
2019-05-29T10:22:43.318Z,101027.35
2019-05-29T10:25:13.674Z,101023.84
2019-05-29T10:27:43.299Z,101029.60
2019-05-29T10:30:14.645Z,101032.55
2019-05-29T10:32:44.392Z,101031.44
2019-05-29T10:35:13.098Z,101038.17
2019-05-29T10:37:42.797Z,101032.69
2019-05-29T10:40:13.119Z,101032.17
2019-05-29T10:42:42.940Z,101031.41
2019-05-29T10:45:12.428Z,101031.15
2019-05-29T10:47:40.846Z,101025.77
2019-05-29T10:50:10.694Z,101023.69
2019-05-29T10:52:39.167Z,101031.54
2019-05-29T10:55:08.312Z,101033.22
2019-05-29T10:57:36.795Z,101020.28
2019-05-29T11:00:07.563Z,101026.08
2019-05-29T11:02:35.974Z,101029.92
2019-05-29T11:05:06.708Z,101027.13
2019-05-29T11:07:37.838Z,101019.05
2019-05-29T11:10:08.435Z,101028.03
2019-05-29T11:12:39.274Z,101021.36
2019-05-29T11:15:20.887Z,101026.16
2019-05-29T11:17:39.553Z,101020.69
2019-05-29T11:20:09.600Z,101024.19
2019-05-29T11:22:38.401Z,101021.95
2019-05-29T11:25:21.648Z,101016.62
2019-05-29T11:27:37.825Z,101020.27
2019-05-29T11:30:08.700Z,101015.03
2019-05-29T11:32:37.180Z,101024.58
2019-05-29T11:35:06.618Z,101018.91
2019-05-29T11:37:35.087Z,101019.91
2019-05-29T11:40:04.043Z,101020.22
2019-05-29T11:42:33.841Z,101015.95
2019-05-29T11:45:03.812Z,101019.71
2019-05-29T11:47:32.457Z,101020.52
2019-05-29T11:50:14.716Z,101019.45
2019-05-29T11:52:42.293Z,101025.05
2019-05-29T11:55:04.455Z,101024.78
2019-05-29T11:57:31.521Z,101023.72
2019-05-29T12:00:09.449Z,101026.73
2019-05-29T12:02:31.730Z,101025.48
2019-05-29T12:05:02.709Z,101028.48
2019-05-29T12:07:30.314Z,101027.19
2019-05-29T12:09:59.604Z,101027.28
2019-05-29T12:12:28.188Z,101024.40
2019-05-29T12:15:06.162Z,101025.98
2019-05-29T12:17:27.152Z,101028.12
2019-05-29T12:19:56.093Z,101037.50
2019-05-29T12:22:24.467Z,101038.66
2019-05-29T12:24:52.831Z,101044.92
2019-05-29T12:27:21.244Z,101029.27
2019-05-29T12:29:49.652Z,101045.24
2019-05-29T12:32:18.156Z,101049.94
2019-05-29T12:34:53.792Z,101045.81
2019-05-29T12:37:16.816Z,101044.12
2019-05-29T12:39:45.222Z,101049.30
2019-05-29T12:42:13.615Z,101051.98
2019-05-29T12:44:43.389Z,101050.34
2019-05-29T12:47:11.797Z,101051.58
2019-05-29T12:49:40.204Z,101052.38
2019-05-29T12:52:09.630Z,101047.65
2019-05-29T12:54:39.051Z,101056.02
2019-05-29T12:57:07.545Z,101051.33
2019-05-29T12:59:37.575Z,101052.22
2019-05-29T13:02:06.275Z,101056.42
2019-05-29T13:05:05.446Z,101062.48
2019-05-29T13:07:05.039Z,101064.88
2019-05-29T13:09:39.570Z,101066.58
2019-05-29T13:12:08.033Z,101060.95
2019-05-29T13:14:36.432Z,101072.52
2019-05-29T13:17:05.272Z,101064.95
2019-05-29T13:19:33.975Z,101068.31
2019-05-29T13:22:03.599Z,101060.30
2019-05-29T13:24:32.010Z,101067.13
2019-05-29T13:27:01.758Z,101052.86
2019-05-29T13:29:30.219Z,101064.55
2019-05-29T13:32:02.055Z,101062.95
2019-05-29T13:34:30.264Z,101065.77
2019-05-29T13:37:00.821Z,101071.79
2019-05-29T13:39:30.125Z,101074.95
2019-05-29T13:42:03.714Z,101079.60
2019-05-29T13:44:30.272Z,101075.67
2019-05-29T13:47:00.226Z,101074.70
2019-05-29T13:49:28.912Z,101086.82
2019-05-29T13:51:59.170Z,101076.42
2019-05-29T13:54:27.562Z,101085.11
2019-05-29T13:56:56.049Z,101073.41
2019-05-29T13:59:24.507Z,101079.82
2019-05-29T14:01:53.137Z,101075.71
2019-05-29T14:04:21.537Z,101079.50
2019-05-29T14:06:52.944Z,101087.00
2019-05-29T14:09:20.151Z,101078.48
2019-05-29T14:11:48.528Z,101084.99
2019-05-29T14:14:16.960Z,101084.15
2019-05-29T14:16:45.346Z,101080.71
2019-05-29T14:19:13.959Z,101073.09
2019-05-29T14:21:42.447Z,101080.83
2019-05-29T14:24:26.128Z,101083.30
2019-05-29T14:26:41.827Z,101088.33
2019-05-29T14:29:12.461Z,101085.63
2019-05-29T14:31:42.623Z,101089.53
2019-05-29T14:34:11.016Z,101092.69
2019-05-29T14:36:39.416Z,101082.72
2019-05-29T14:39:09.755Z,101078.88
2019-05-29T14:41:38.357Z,101073.86
2019-05-29T14:44:07.938Z,101073.20
2019-05-29T14:46:36.345Z,101070.06
2019-05-29T14:49:06.442Z,101072.16
2019-05-29T14:51:34.892Z,101065.47
2019-05-29T14:54:04.773Z,101071.20
2019-05-29T14:56:33.512Z,101048.97
2019-05-29T14:59:03.215Z,101060.11
2019-05-29T15:01:32.040Z,101064.97
2019-05-29T15:04:00.594Z,101063.59
2019-05-29T15:06:28.997Z,101058.92
2019-05-29T15:09:00.142Z,101061.48
2019-05-29T15:11:28.537Z,101064.63
2019-05-29T15:13:56.977Z,101065.25
2019-05-29T15:16:25.432Z,101069.72
2019-05-29T15:18:53.865Z,101058.39
2019-05-29T15:21:22.266Z,101068.53
2019-05-29T15:23:52.228Z,101064.31
2019-05-29T15:26:20.730Z,101070.28
2019-05-29T15:28:49.132Z,101074.92
2019-05-29T15:31:17.623Z,101070.88
2019-05-29T15:33:46.028Z,101069.59
2019-05-29T15:36:17.049Z,101075.13
2019-05-29T15:38:45.477Z,101075.59
2019-05-29T15:41:14.850Z,101074.64
2019-05-29T15:43:43.647Z,101074.49
2019-05-29T15:46:13.399Z,101074.36
2019-05-29T15:48:41.978Z,101080.92
2019-05-29T15:51:10.968Z,101079.66
2019-05-29T15:53:41.095Z,101080.95
2019-05-29T15:56:21.682Z,101081.45
2019-05-29T15:58:39.661Z,101077.60
2019-05-29T16:01:09.551Z,101078.06
2019-05-29T16:03:40.922Z,101081.20
2019-05-29T16:06:09.758Z,101083.83
2019-05-29T16:08:39.299Z,101082.80
2019-05-29T16:11:08.607Z,101073.23
2019-05-29T16:13:37.419Z,101076.11
2019-05-29T16:16:07.219Z,101079.02
2019-05-29T16:18:36.742Z,101081.14
2019-05-29T16:21:05.446Z,101081.00
2019-05-29T16:23:36.041Z,101080.56
2019-05-29T16:26:06.062Z,101080.45
2019-05-29T16:28:38.305Z,101085.14
2019-05-29T16:31:06.713Z,101086.98
2019-05-29T16:33:37.187Z,101085.34
2019-05-29T16:36:05.721Z,101089.22
2019-05-29T16:38:34.236Z,101084.81
2019-05-29T16:41:02.697Z,101086.86
2019-05-29T16:43:31.130Z,101093.97
2019-05-29T16:45:59.517Z,101094.00
2019-05-29T16:48:28.023Z,101095.75
2019-05-29T16:50:56.399Z,101098.83
2019-05-29T16:53:24.914Z,101101.87
2019-05-29T16:55:54.476Z,101110.53
2019-05-29T16:58:24.812Z,101112.28
2019-05-29T17:00:53.205Z,101110.74
2019-05-29T17:03:21.743Z,101102.92
2019-05-29T17:05:50.091Z,101111.06
2019-05-29T17:08:18.649Z,101113.98
2019-05-29T17:10:47.070Z,101098.56
2019-05-29T17:13:16.608Z,101115.09
2019-05-29T17:15:46.659Z,101101.64
2019-05-29T17:18:16.415Z,101121.98
2019-05-29T17:20:46.541Z,101121.53
2019-05-29T17:23:16.716Z,101118.41
2019-05-29T17:25:45.201Z,101120.56
2019-05-29T17:28:14.995Z,101116.38
2019-05-29T17:30:43.517Z,101119.88
2019-05-29T17:33:12.254Z,101119.26
2019-05-29T17:35:40.656Z,101120.56
2019-05-29T17:38:10.582Z,101127.36
2019-05-29T17:40:38.980Z,101132.45
2019-05-29T17:43:07.434Z,101132.03
2019-05-29T17:45:36.360Z,101130.78
2019-05-29T17:48:05.383Z,101131.80
2019-05-29T17:50:33.809Z,101127.84
2019-05-29T17:53:02.188Z,101136.30
2019-05-29T17:55:30.611Z,101137.27
2019-05-29T17:57:59.004Z,101140.70
2019-05-29T18:00:27.483Z,101137.53
2019-05-29T18:02:55.891Z,101145.50
2019-05-29T18:05:24.752Z,101144.59
2019-05-29T18:07:53.619Z,101146.41
2019-05-29T18:10:24.124Z,101150.83
2019-05-29T18:12:54.018Z,101132.66
2019-05-29T18:15:25.555Z,101150.75
2019-05-29T18:17:56.540Z,101149.23
2019-05-29T18:20:25.843Z,101157.74
2019-05-29T18:22:54.789Z,101165.14
2019-05-29T18:25:23.991Z,101161.11
2019-05-29T18:27:52.456Z,101166.17
2019-05-29T18:30:22.737Z,101171.95
2019-05-29T18:32:51.129Z,101181.70
2019-05-29T18:35:20.656Z,101171.17
2019-05-29T18:37:49.469Z,101175.92
2019-05-29T18:40:20.231Z,101157.48
2019-05-29T18:42:48.746Z,101171.91
2019-05-29T18:45:22.407Z,101177.27
2019-05-29T18:47:49.373Z,101178.51
2019-05-29T18:50:19.822Z,101178.95
2019-05-29T18:52:48.414Z,101180.45
2019-05-29T18:55:17.358Z,101180.27
2019-05-29T18:57:45.743Z,101186.08
2019-05-29T19:00:14.926Z,101186.20
2019-05-29T19:02:43.409Z,101187.81
2019-05-29T19:05:12.049Z,101192.03
2019-05-29T19:07:41.955Z,101196.45
2019-05-29T19:10:10.728Z,101205.91
2019-05-29T19:12:39.109Z,101205.92
2019-05-29T19:15:08.139Z,101207.84
2019-05-29T19:17:36.774Z,101213.05
2019-05-29T19:20:06.180Z,101215.87
2019-05-29T19:22:37.159Z,101217.65
2019-05-29T19:25:08.838Z,101232.63
2019-05-29T19:27:41.343Z,101234.20
2019-05-29T19:30:11.220Z,101234.41
2019-05-29T19:32:40.070Z,101242.75
2019-05-29T19:35:09.267Z,101244.00
2019-05-29T19:37:38.016Z,101249.00
2019-05-29T19:40:10.417Z,101247.48
2019-05-29T19:42:38.946Z,101251.42
2019-05-29T19:45:11.238Z,101259.03
2019-05-29T19:47:41.258Z,101263.30
2019-05-29T19:50:11.780Z,101263.59
2019-05-29T19:52:40.719Z,101267.66
2019-05-29T19:55:10.073Z,101260.87
2019-05-29T19:57:54.798Z,101268.81
2019-05-29T20:00:10.337Z,101274.27
2019-05-29T20:02:39.541Z,101277.07
2019-05-29T20:05:08.057Z,101279.02
2019-05-29T20:07:37.515Z,101285.27
2019-05-29T20:10:08.298Z,101296.23
2019-05-29T20:12:38.249Z,101289.70
2019-05-29T20:15:08.771Z,101285.16
2019-05-29T20:17:38.524Z,101289.64
2019-05-29T20:20:08.179Z,101292.75
2019-05-29T20:22:37.009Z,101299.44
2019-05-29T20:25:07.253Z,101297.50
2019-05-29T20:27:36.280Z,101304.37
2019-05-29T20:30:07.336Z,101302.05
2019-05-29T20:32:36.832Z,101302.39
2019-05-29T20:35:08.593Z,101300.38
2019-05-29T20:37:38.227Z,101301.41
2019-05-29T20:40:07.696Z,101302.78
2019-05-29T20:42:36.365Z,101307.17
2019-05-29T20:45:07.118Z,101305.89
2019-05-29T20:47:35.757Z,101314.24
2019-05-29T20:50:12.235Z,101309.89
2019-05-29T20:52:41.422Z,101310.75
2019-05-29T20:55:11.591Z,101314.24
2019-05-29T20:57:40.207Z,101312.61
2019-05-29T21:00:12.950Z,101315.09
2019-05-29T21:02:42.522Z,101322.67
2019-05-29T21:05:14.745Z,101323.32
2019-05-29T21:07:43.211Z,101324.79
2019-05-29T21:10:13.484Z,101330.11
2019-05-29T21:12:46.154Z,101328.31
2019-05-29T21:15:12.538Z,101330.11
2019-05-29T21:17:43.970Z,101328.83
2019-05-29T21:20:14.091Z,101328.67
2019-05-29T21:22:45.082Z,101327.39
2019-05-29T21:25:18.560Z,101328.16
2019-05-29T21:27:49.480Z,101338.31
2019-05-29T21:30:20.313Z,101335.02
2019-05-29T21:32:48.703Z,101341.22
2019-05-29T21:35:17.106Z,101338.76
2019-05-29T21:37:46.630Z,101341.56
2019-05-29T21:40:16.283Z,101344.41
2019-05-29T21:42:44.907Z,101341.72
2019-05-29T21:45:13.492Z,101339.75
2019-05-29T21:47:43.479Z,101337.09
2019-05-29T21:50:13.976Z,101340.38
2019-05-29T21:52:43.856Z,101337.71
2019-05-29T21:55:13.024Z,101342.66
2019-05-29T21:57:45.147Z,101340.88
2019-05-29T22:00:14.210Z,101341.66
2019-05-29T22:02:42.656Z,101344.64
2019-05-29T22:05:11.338Z,101328.27
2019-05-29T22:07:40.714Z,101348.20
2019-05-29T22:10:09.828Z,101347.22
2019-05-29T22:12:38.226Z,101349.64
2019-05-29T22:15:10.109Z,101356.34
2019-05-29T22:17:38.520Z,101350.48
2019-05-29T22:20:16.227Z,101352.58
2019-05-29T22:22:44.609Z,101352.44
2019-05-29T22:25:13.429Z,101333.42
2019-05-29T22:27:41.965Z,101328.57
2019-05-29T22:30:10.589Z,101344.77
2019-05-29T22:32:39.018Z,101346.98
2019-05-29T22:35:07.722Z,101351.45
2019-05-29T22:37:36.107Z,101345.72
2019-05-29T22:40:06.292Z,101350.48
2019-05-29T22:42:36.860Z,101356.48
2019-05-29T22:45:07.989Z,101357.34
2019-05-29T22:47:36.381Z,101352.64
2019-05-29T22:50:07.118Z,101358.83
2019-05-29T22:52:35.853Z,101352.14
2019-05-29T22:55:06.293Z,101363.30
2019-05-29T22:57:34.680Z,101357.92
2019-05-29T23:00:04.430Z,101356.28
2019-05-29T23:02:32.832Z,101361.53
2019-05-29T23:05:03.656Z,101357.50
2019-05-29T23:07:32.618Z,101362.78
2019-05-29T23:10:01.012Z,101368.20
2019-05-29T23:12:29.416Z,101358.89
2019-05-29T23:14:58.503Z,101358.22
2019-05-29T23:17:26.890Z,101362.28
2019-05-29T23:19:56.633Z,101358.72
2019-05-29T23:22:25.354Z,101358.22
2019-05-29T23:24:56.769Z,101360.06
2019-05-29T23:27:25.166Z,101355.86
2019-05-29T23:29:54.760Z,101355.50
2019-05-29T23:32:23.788Z,101358.57
2019-05-29T23:34:55.049Z,101357.75
2019-05-29T23:37:24.963Z,101355.39
2019-05-29T23:39:53.351Z,101358.78
2019-05-29T23:42:21.751Z,101357.78
2019-05-29T23:44:52.130Z,101359.53
2019-05-29T23:47:20.279Z,101352.05
2019-05-29T23:49:48.653Z,101358.14
2019-05-29T23:52:17.054Z,101353.75
2019-05-29T23:54:45.447Z,101357.85
2019-05-29T23:57:13.850Z,101354.47
2019-05-29T23:59:42.338Z,101359.06
